Time,TemperatureF,DewpointF,PressureIn,WindDirection,WindDirectionDegrees,WindSpeedMPH,WindSpeedGustMPH,Humidity,HourlyPrecipIn,Conditions,Clouds,dailyrainin,SoftwareType,DateUTC
2013-05-18 00:03:00,64.2,45.2,30.00,ENE,68,0.0,0.0,50,0.00,CLR,CLR,0.00,WeatherDisplay:10.37,2013-05-18 04:03:00,
2013-05-18 00:18:00,64.0,45.5,30.00,ENE,68,0.0,1.0,51,0.00,CLR,CLR,0.00,WeatherDisplay:10.37,2013-05-18 04:18:00,
2013-05-18 00:48:00,63.9,46.9,30.00,NE,49,0.0,1.0,54,0.00,CLR,CLR,0.00,WeatherDisplay:10.37,2013-05-18 04:48:00,
2013-05-18 01:18:00,64.0,48.0,30.00,NNE,29,0.0,2.0,56,0.00,CLR,CLR,0.00,WeatherDisplay:10.37,2013-05-18 05:18:00,
2013-05-18 01:33:00,64.2,47.7,30.03,NNE,30,1.0,2.0,55,0.00,CLR,CLR,0.00,WeatherDisplay:10.37,2013-05-18 05:33:00,
2013-05-18 01:48:00,64.2,47.7,30.03,NE,53,0.0,3.0,55,0.00,CLR,CLR,0.00,WeatherDisplay:10.37,2013-05-18 05:48:00,
2013-05-18 02:03:00,64.4,47.9,30.03,NE,45,0.0,1.0,55,0.00,CLR,CLR,0.00,WeatherDisplay:10.37,2013-05-18 06:03:00,
2013-05-18 02:18:00,64.4,47.4,30.03,NE,45,0.0,0.0,54,0.00,CLR,CLR,0.00,WeatherDisplay:10.37,2013-05-18 06:18:00,
2013-05-18 02:33:00,64.8,47.2,30.03,East,86,0.0,1.0,53,0.00,CLR,CLR,0.00,WeatherDisplay:10.37,2013-05-18 06:33:00,
2013-05-18 02:34:00,64.8,47.2,30.03,WSW,245,0.0,1.0,53,0.00,OVC,OVC,0.00,WeatherDisplay:10.37,2013-05-18 06:34:00,
2013-05-18 02:35:00,64.8,47.2,30.03,WSW,245,0.0,0.0,53,0.00,OVC,OVC,0.00,WeatherDisplay:10.37,2013-05-18 06:35:00,
2013-05-18 02:36:00,64.8,47.2,30.03,WSW,245,0.0,0.0,53,0.00,OVC,OVC,0.00,WeatherDisplay:10.37,2013-05-18 06:36:00,
2013-05-18 02:37:00,64.8,47.2,30.03,WSW,245,0.0,0.0,53,0.00,OVC,OVC,0.00,WeatherDisplay:10.37,2013-05-18 06:37:00,
2013-05-18 02:38:00,64.8,47.2,30.03,WSW,245,0.0,0.0,53,0.00,OVC,OVC,0.00,WeatherDisplay:10.37,2013-05-18 06:38:00,
2013-05-18 02:39:00,64.8,47.2,30.03,WSW,245,0.0,0.0,53,0.00,OVC,OVC,0.00,WeatherDisplay:10.37,2013-05-18 06:39:00,
2013-05-18 02:40:00,64.8,47.2,30.03,WSW,245,0.0,0.0,53,0.00,OVC,OVC,0.00,WeatherDisplay:10.37,2013-05-18 06:40:00,
2013-05-18 02:41:00,64.8,47.2,30.03,WSW,245,0.0,0.0,53,0.00,OVC,OVC,0.00,WeatherDisplay:10.37,2013-05-18 06:41:00,
2013-05-18 02:42:00,64.8,47.2,30.03,WSW,245,0.0,0.0,53,0.00,OVC,OVC,0.00,WeatherDisplay:10.37,2013-05-18 06:42:00,
2013-05-18 02:43:00,64.8,47.2,30.03,WSW,245,0.0,0.0,53,0.00,OVC,OVC,0.00,WeatherDisplay:10.37,2013-05-18 06:43:00,
2013-05-18 02:44:00,64.8,47.2,30.03,WSW,245,0.0,0.0,53,0.00,OVC,OVC,0.00,WeatherDisplay:10.37,2013-05-18 06:44:00,
2013-05-18 02:45:00,64.8,47.2,30.03,WSW,245,0.0,0.0,53,0.00,OVC,OVC,0.00,WeatherDisplay:10.37,2013-05-18 06:45:00,
2013-05-18 02:46:00,64.8,47.2,30.03,WSW,245,0.0,0.0,53,0.00,OVC,OVC,0.00,WeatherDisplay:10.37,2013-05-18 06:46:00,
2013-05-18 02:47:00,64.8,47.2,30.03,WSW,245,0.0,0.0,53,0.00,OVC,OVC,0.00,WeatherDisplay:10.37,2013-05-18 06:47:00,
2013-05-18 02:48:00,64.8,47.2,30.03,WSW,245,0.0,0.0,53,0.00,OVC,OVC,0.00,WeatherDisplay:10.37,2013-05-18 06:48:00,
2013-05-18 07:34:00,64.8,47.2,30.03,East,90,2.7,0.0,53,0.00,-RA,,0.00,WeatherDisplay:10.37,2013-05-18 11:34:00,
2013-05-18 07:35:00,64.8,47.2,30.03,SE,135,0.0,0.0,53,0.00,-RA,,0.00,WeatherDisplay:10.37,2013-05-18 11:35:00,
2013-05-18 07:36:00,64.8,47.2,30.03,WSW,248,0.9,0.0,53,0.00,-RA,,0.00,WeatherDisplay:10.37,2013-05-18 11:36:00,
2013-05-18 07:40:00,64.8,47.2,30.03,SW,225,0.0,0.0,53,0.00,-RA,,0.00,WeatherDisplay:10.37,2013-05-18 11:40:00,
2013-05-18 07:45:00,64.8,47.2,30.03,East,90,1.2,0.0,53,0.00,OVC,,0.00,WeatherDisplay:10.37,2013-05-18 11:45:00,
2013-05-18 07:50:00,64.9,47.4,30.03,North,0,0.0,0.0,53,0.00,OVC,,0.00,WeatherDisplay:10.37,2013-05-18 11:50:00,
2013-05-18 07:55:00,65.1,47.6,30.03,East,90,0.0,0.0,53,0.00,OVC,,0.00,WeatherDisplay:10.37,2013-05-18 11:55:00,
2013-05-18 08:00:00,65.5,47.9,30.03,NNE,22,0.0,0.0,53,0.00,OVC,,0.00,WeatherDisplay:10.37,2013-05-18 12:00:00,
2013-05-18 08:05:00,65.8,48.2,30.06,NW,315,0.0,0.0,53,0.00,OVC,,0.00,WeatherDisplay:10.37,2013-05-18 12:05:00,
2013-05-18 08:10:00,66.2,48.6,30.06,NE,45,1.2,0.0,53,0.00,OVC,,0.00,WeatherDisplay:10.37,2013-05-18 12:10:00,
2013-05-18 08:15:00,66.4,48.7,30.06,NE,45,0.0,0.0,53,0.00,OVC,,0.00,WeatherDisplay:10.37,2013-05-18 12:15:00,
2013-05-18 08:20:00,66.9,49.2,30.06,NE,45,0.0,0.0,53,0.00,OVC,,0.00,WeatherDisplay:10.37,2013-05-18 12:20:00,
2013-05-18 08:25:00,67.5,49.7,30.06,NE,45,1.2,0.0,53,0.00,OVC,,0.00,WeatherDisplay:10.37,2013-05-18 12:25:00,
2013-05-18 08:30:00,67.6,49.9,30.06,South,180,0.0,0.0,53,0.00,OVC,,0.00,WeatherDisplay:10.37,2013-05-18 12:30:00,
2013-05-18 08:35:00,68.2,50.4,30.06,South,180,1.2,0.0,53,0.00,OVC,,0.00,WeatherDisplay:10.37,2013-05-18 12:35:00,
2013-05-18 08:40:00,68.4,50.6,30.06,West,270,0.0,0.0,53,0.00,OVC,,0.00,WeatherDisplay:10.37,2013-05-18 12:40:00,
2013-05-18 08:45:00,68.5,50.7,30.06,ENE,68,2.3,2.3,53,0.00,OVC,,0.00,WeatherDisplay:10.37,2013-05-18 12:45:00,
2013-05-18 08:50:00,68.7,50.9,30.06,NE,45,1.2,0.0,53,0.00,OVC,,0.00,WeatherDisplay:10.37,2013-05-18 12:50:00,
2013-05-18 08:55:00,68.9,51.1,30.06,NNE,22,1.2,0.0,53,0.00,OVC,,0.00,WeatherDisplay:10.37,2013-05-18 12:55:00,
2013-05-18 09:00:00,68.9,51.1,30.06,East,90,1.2,0.0,53,0.00,OVC,,0.00,WeatherDisplay:10.37,2013-05-18 13:00:00,
2013-05-18 09:05:00,69.3,51.4,30.06,SSW,202,2.3,2.3,53,0.00,OVC,,0.00,WeatherDisplay:10.37,2013-05-18 13:05:00,
2013-05-18 09:10:00,69.3,51.4,30.06,SW,225,0.0,0.0,53,0.00,OVC,,0.00,WeatherDisplay:10.37,2013-05-18 13:10:00,
2013-05-18 09:15:00,69.3,51.4,30.06,SW,225,1.2,0.0,53,0.00,OVC,,0.00,WeatherDisplay:10.37,2013-05-18 13:15:00,
2013-05-18 09:20:00,69.1,62.6,30.06,SW,225,0.0,0.0,80,0.00,OVC,,0.00,WeatherDisplay:10.37,2013-05-18 13:20:00,
2013-05-18 09:25:00,69.3,62.8,30.06,SW,225,0.0,0.0,80,0.00,OVC,,0.00,WeatherDisplay:10.37,2013-05-18 13:25:00,
2013-05-18 09:30:00,69.3,62.8,30.06,NE,45,1.6,1.6,80,0.00,OVC,,0.00,WeatherDisplay:10.37,2013-05-18 13:30:00,
2013-05-18 09:35:00,69.4,62.6,30.06,East,90,1.6,1.6,79,0.00,OVC,,0.00,WeatherDisplay:10.37,2013-05-18 13:35:00,
2013-05-18 09:40:00,69.6,62.8,30.06,East,90,2.0,2.0,79,0.00,OVC,,0.00,WeatherDisplay:10.37,2013-05-18 13:40:00,
2013-05-18 09:45:00,70.2,63.0,30.06,North,0,1.2,0.0,78,0.00,OVC,,0.00,WeatherDisplay:10.37,2013-05-18 13:45:00,
2013-05-18 09:50:00,70.5,63.0,30.06,NE,45,0.0,0.0,77,0.00,OVC,,0.00,WeatherDisplay:10.37,2013-05-18 13:50:00,
2013-05-18 09:55:00,71.2,63.7,30.06,NNE,22,0.0,0.0,77,0.00,OVC,,0.00,WeatherDisplay:10.37,2013-05-18 13:55:00,
2013-05-18 10:00:00,71.6,62.1,30.06,WSW,248,0.0,0.0,72,0.00,FEW,,0.00,WeatherDisplay:10.37,2013-05-18 14:00:00,
2013-05-18 10:05:00,72.0,62.4,30.06,East,90,1.2,0.0,72,0.00,FEW,,0.00,WeatherDisplay:10.37,2013-05-18 14:05:00,
2013-05-18 10:10:00,72.3,62.4,30.06,East,90,1.2,0.0,71,0.00,FEW,,0.00,WeatherDisplay:10.37,2013-05-18 14:10:00,
2013-05-18 10:15:00,72.5,62.2,30.06,East,90,0.9,0.0,70,0.00,OVC,,0.00,WeatherDisplay:10.37,2013-05-18 14:15:00,
2013-05-18 10:20:00,72.5,62.2,30.06,SE,135,0.0,0.0,70,0.00,OVC,,0.00,WeatherDisplay:10.37,2013-05-18 14:20:00,
2013-05-18 10:25:00,72.9,62.1,30.06,South,180,1.2,0.0,69,0.00,OVC,,0.00,WeatherDisplay:10.37,2013-05-18 14:25:00,
2013-05-18 10:30:00,73.0,62.3,30.06,East,90,1.4,1.4,69,0.00,BKN,,0.00,WeatherDisplay:10.37,2013-05-18 14:30:00,
2013-05-18 10:35:00,73.4,62.6,30.06,East,90,1.2,0.0,69,0.00,BKN,,0.00,WeatherDisplay:10.37,2013-05-18 14:35:00,
2013-05-18 10:40:00,73.9,62.7,30.06,North,0,0.9,0.0,68,0.00,BKN,,0.00,WeatherDisplay:10.37,2013-05-18 14:40:00,
2013-05-18 10:45:00,75.0,63.7,30.06,SE,135,2.4,2.4,68,0.00,BKN,,0.00,WeatherDisplay:10.37,2013-05-18 14:45:00,
2013-05-18 10:50:00,75.2,63.5,30.06,SE,135,2.3,2.3,67,0.00,BKN,,0.00,WeatherDisplay:10.37,2013-05-18 14:50:00,
2013-05-18 10:55:00,75.7,64.0,30.06,NE,45,1.2,1.2,67,0.00,BKN,,0.00,WeatherDisplay:10.37,2013-05-18 14:55:00,
2013-05-18 11:00:00,75.6,63.0,30.06,SW,225,2.0,2.0,65,0.00,BKN,,0.00,WeatherDisplay:10.37,2013-05-18 15:00:00,
2013-05-18 11:05:00,76.3,63.6,30.06,East,90,0.0,0.0,65,0.00,BKN,,0.00,WeatherDisplay:10.37,2013-05-18 15:05:00,
2013-05-18 11:10:00,76.3,63.6,30.06,NE,45,1.4,1.4,65,0.00,BKN,,0.00,WeatherDisplay:10.37,2013-05-18 15:10:00,
2013-05-18 11:15:00,76.1,63.5,30.06,East,90,2.3,2.3,65,0.00,OVC,,0.00,WeatherDisplay:10.37,2013-05-18 15:15:00,
2013-05-18 11:20:00,77.2,64.5,30.06,NNE,22,1.2,0.0,65,0.00,OVC,,0.00,WeatherDisplay:10.37,2013-05-18 15:20:00,
2013-05-18 11:25:00,77.2,64.5,30.06,East,90,1.2,0.0,65,0.00,OVC,,0.00,WeatherDisplay:10.37,2013-05-18 15:25:00,
2013-05-18 11:30:00,76.8,64.2,30.06,South,180,2.4,2.4,65,0.00,OVC,,0.00,WeatherDisplay:10.37,2013-05-18 15:30:00,
2013-05-18 11:35:00,76.1,62.1,30.06,East,90,1.2,0.0,62,0.00,OVC,,0.00,WeatherDisplay:10.37,2013-05-18 15:35:00,
2013-05-18 11:40:00,75.4,61.5,30.06,North,0,0.0,0.0,62,0.00,OVC,,0.00,WeatherDisplay:10.37,2013-05-18 15:40:00,
2013-05-18 11:45:00,74.1,61.6,30.06,SW,225,2.4,2.4,65,0.00,OVC,,0.00,WeatherDisplay:10.37,2013-05-18 15:45:00,
2013-05-18 11:50:00,73.2,61.2,30.06,SW,225,1.2,1.2,66,0.00,OVC,,0.00,WeatherDisplay:10.37,2013-05-18 15:50:00,
2013-05-18 11:55:00,72.7,60.7,30.06,SW,225,3.5,3.5,66,0.00,OVC,,0.00,WeatherDisplay:10.37,2013-05-18 15:55:00,
2013-05-18 12:00:00,72.3,61.2,30.06,SSW,202,2.4,2.4,68,0.00,OVC,,0.00,WeatherDisplay:10.37,2013-05-18 16:00:00,
2013-05-18 12:05:00,72.5,61.3,30.06,SSW,202,2.3,2.3,68,0.00,OVC,,0.00,WeatherDisplay:10.37,2013-05-18 16:05:00,
2013-05-18 12:10:00,71.8,60.6,30.06,South,180,2.3,2.3,68,0.00,OVC,,0.00,WeatherDisplay:10.37,2013-05-18 16:10:00,
2013-05-18 12:15:00,71.4,60.7,30.06,South,180,2.3,2.3,69,0.00,OVC,,0.00,WeatherDisplay:10.37,2013-05-18 16:15:00,
2013-05-18 12:20:00,71.2,60.5,30.06,SW,225,3.5,3.5,69,0.00,OVC,,0.00,WeatherDisplay:10.37,2013-05-18 16:20:00,
2013-05-18 12:25:00,70.9,60.2,30.06,South,180,3.5,3.5,69,0.00,OVC,,0.00,WeatherDisplay:10.37,2013-05-18 16:25:00,
2013-05-18 12:30:00,70.7,60.0,30.06,SW,225,2.3,2.3,69,0.00,OVC,,0.00,WeatherDisplay:10.37,2013-05-18 16:30:00,
2013-05-18 12:35:00,70.5,60.3,30.06,South,180,1.2,1.2,70,0.00,OVC,,0.00,WeatherDisplay:10.37,2013-05-18 16:35:00,
2013-05-18 12:40:00,70.5,60.3,30.06,SW,225,2.3,2.3,70,0.00,OVC,,0.00,WeatherDisplay:10.37,2013-05-18 16:40:00,
2013-05-18 12:45:00,70.9,60.6,30.06,SSW,202,1.2,1.2,70,0.00,OVC,,0.00,WeatherDisplay:10.37,2013-05-18 16:45:00,
2013-05-18 12:50:00,71.2,61.0,30.06,East,90,0.0,0.0,70,0.00,OVC,,0.00,WeatherDisplay:10.37,2013-05-18 16:50:00,
2013-05-18 12:55:00,71.8,61.5,30.06,South,180,2.3,2.3,70,0.00,OVC,,0.00,WeatherDisplay:10.37,2013-05-18 16:55:00,
2013-05-18 13:00:00,72.5,62.2,30.06,SSW,202,2.4,2.4,70,0.00,OVC,,0.00,WeatherDisplay:10.37,2013-05-18 17:00:00,
2013-05-18 13:05:00,72.9,62.1,30.06,South,180,2.0,0.0,69,0.00,OVC,,0.00,WeatherDisplay:10.37,2013-05-18 17:05:00,
2013-05-18 13:10:00,72.7,61.9,30.06,South,180,3.5,3.5,69,0.00,OVC,,0.00,WeatherDisplay:10.37,2013-05-18 17:10:00,
2013-05-18 13:15:00,73.0,62.3,30.06,West,270,2.3,2.3,69,0.00,OVC,,0.00,WeatherDisplay:10.37,2013-05-18 17:15:00,
2013-05-18 13:20:00,73.2,62.4,30.03,SW,225,2.3,2.3,69,0.00,OVC,,0.00,WeatherDisplay:10.37,2013-05-18 17:20:00,
2013-05-18 13:25:00,74.7,63.4,30.03,SW,225,1.6,0.0,68,0.00,OVC,,0.00,WeatherDisplay:10.37,2013-05-18 17:25:00,
2013-05-18 13:30:00,75.0,63.7,30.03,SW,225,2.4,2.4,68,0.00,OVC,,0.00,WeatherDisplay:10.37,2013-05-18 17:30:00,
2013-05-18 13:35:00,75.7,63.1,30.00,SSW,202,3.5,3.5,65,0.00,-DZ,,0.00,WeatherDisplay:10.37,2013-05-18 17:35:00,
2013-05-18 13:40:00,77.0,64.3,30.00,East,90,2.3,2.3,65,0.00,-DZ,,0.00,WeatherDisplay:10.37,2013-05-18 17:40:00,
2013-05-18 13:45:00,79.2,65.9,30.00,East,90,0.0,0.0,64,0.00,-DZ,,0.00,WeatherDisplay:10.37,2013-05-18 17:45:00,
2013-05-18 13:50:00,79.7,66.4,30.00,NE,45,1.2,1.2,64,0.00,OVC,,0.00,WeatherDisplay:10.37,2013-05-18 17:50:00,
2013-05-18 13:55:00,79.0,64.8,30.00,South,180,1.2,0.0,62,0.00,OVC,,0.00,WeatherDisplay:10.37,2013-05-18 17:55:00,
2013-05-18 14:00:00,79.3,65.2,30.00,SW,225,3.5,3.5,62,0.00,OVC,,0.00,WeatherDisplay:10.37,2013-05-18 18:00:00,
2013-05-18 14:05:00,79.2,65.0,30.00,SW,225,2.4,2.4,62,0.00,OVC,,0.00,WeatherDisplay:10.37,2013-05-18 18:05:00,
2013-05-18 14:10:00,78.8,64.7,30.00,SSW,202,1.4,1.4,62,0.00,OVC,,0.00,WeatherDisplay:10.37,2013-05-18 18:10:00,
2013-05-18 14:15:00,79.9,65.7,30.00,SW,225,2.9,0.0,62,0.00,OVC,,0.00,WeatherDisplay:10.37,2013-05-18 18:15:00,
2013-05-18 14:20:00,80.1,65.9,30.00,SW,225,3.5,3.5,62,0.00,OVC,,0.00,WeatherDisplay:10.37,2013-05-18 18:20:00,
2013-05-18 14:25:00,80.4,66.2,30.00,SW,225,2.3,2.3,62,0.00,OVC,,0.00,WeatherDisplay:10.37,2013-05-18 18:25:00,
2013-05-18 14:30:00,81.3,66.6,30.00,SW,225,4.6,4.6,61,0.00,OVC,,0.00,WeatherDisplay:10.37,2013-05-18 18:30:00,
2013-05-18 14:35:00,82.4,67.6,30.00,NE,45,2.3,2.3,61,0.00,BKN,,0.00,WeatherDisplay:10.37,2013-05-18 18:35:00,
2013-05-18 14:40:00,84.4,69.0,30.00,South,180,1.6,1.6,60,0.00,BKN,,0.00,WeatherDisplay:10.37,2013-05-18 18:40:00,
2013-05-18 14:45:00,84.0,69.1,30.00,South,180,2.3,2.3,61,0.00,BKN,,0.00,WeatherDisplay:10.37,2013-05-18 18:45:00,
2013-05-18 14:50:00,84.6,69.1,30.00,NW,315,2.3,2.3,60,0.00,BKN,,0.00,WeatherDisplay:10.37,2013-05-18 18:50:00,
2013-05-18 14:55:00,84.0,69.1,30.00,SW,225,1.2,1.4,61,0.00,BKN,,0.00,WeatherDisplay:10.37,2013-05-18 18:55:00,
2013-05-18 15:00:00,83.7,68.8,30.00,South,180,3.5,3.5,61,0.00,BKN,,0.00,WeatherDisplay:10.37,2013-05-18 19:00:00,
2013-05-18 15:05:00,82.9,68.1,30.00,North,0,1.4,1.4,61,0.00,BKN,,0.00,WeatherDisplay:10.37,2013-05-18 19:05:00,
2013-05-18 15:10:00,82.9,68.1,30.00,NE,45,0.0,0.0,61,0.00,BKN,,0.00,WeatherDisplay:10.37,2013-05-18 19:10:00,
2013-05-18 15:15:00,81.0,66.2,30.00,SW,225,4.6,4.6,61,0.00,BKN,,0.00,WeatherDisplay:10.37,2013-05-18 19:15:00,
2013-05-18 15:20:00,81.1,66.4,30.03,SE,135,2.3,2.3,61,0.00,SCT,,0.00,WeatherDisplay:10.37,2013-05-18 19:20:00,
2013-05-18 15:25:00,81.3,66.6,30.03,SE,135,1.2,1.2,61,0.00,SCT,,0.00,WeatherDisplay:10.37,2013-05-18 19:25:00,
2013-05-18 15:30:00,79.2,65.0,30.03,WSW,248,2.3,2.4,62,0.00,SCT,,0.00,WeatherDisplay:10.37,2013-05-18 19:30:00,
2013-05-18 15:35:00,81.5,66.8,30.00,NW,315,2.3,2.3,61,0.00,OVC,,0.00,WeatherDisplay:10.37,2013-05-18 19:35:00,
2013-05-18 15:40:00,81.1,66.4,30.00,SW,225,3.5,3.5,61,0.00,OVC,,0.00,WeatherDisplay:10.37,2013-05-18 19:40:00,
2013-05-18 15:45:00,80.8,66.1,30.00,SW,225,2.3,2.3,61,0.00,OVC,,0.00,WeatherDisplay:10.37,2013-05-18 19:45:00,
2013-05-18 15:50:00,80.2,66.0,30.00,SW,225,2.3,2.3,62,0.00,OVC,,0.00,WeatherDisplay:10.37,2013-05-18 19:50:00,
2013-05-18 15:55:00,80.8,66.1,30.00,SSW,202,3.5,3.5,61,0.00,OVC,,0.00,WeatherDisplay:10.37,2013-05-18 19:55:00,
2013-05-18 16:00:00,81.7,66.9,30.00,SW,225,3.1,3.1,61,0.00,OVC,,0.00,WeatherDisplay:10.37,2013-05-18 20:00:00,
2013-05-18 16:05:00,81.1,66.4,30.00,SW,225,2.3,2.3,61,0.00,-RA,,0.00,WeatherDisplay:10.37,2013-05-18 20:05:00,
2013-05-18 16:10:00,81.0,66.2,30.00,SW,225,2.3,2.3,61,0.00,-RA,,0.00,WeatherDisplay:10.37,2013-05-18 20:10:00,
2013-05-18 16:15:00,81.5,66.8,30.00,SW,225,0.0,0.0,61,0.00,-RA,,0.00,WeatherDisplay:10.37,2013-05-18 20:15:00,
2013-05-18 16:20:00,81.7,66.9,30.00,SW,225,2.3,2.4,61,0.00,OVC,,0.00,WeatherDisplay:10.37,2013-05-18 20:20:00,
2013-05-18 16:25:00,79.0,64.8,30.00,West,270,3.5,3.5,62,0.00,OVC,,0.00,WeatherDisplay:10.37,2013-05-18 20:25:00,
2013-05-18 16:30:00,77.9,63.8,30.00,SW,225,2.9,2.9,62,0.00,OVC,,0.00,WeatherDisplay:10.37,2013-05-18 20:30:00,
2013-05-18 16:35:00,79.3,65.2,30.00,SSE,158,2.3,2.3,62,0.00,OVC,,0.00,WeatherDisplay:10.37,2013-05-18 20:35:00,
2013-05-18 16:40:00,80.4,66.2,30.00,East,90,1.2,0.0,62,0.00,OVC,,0.00,WeatherDisplay:10.37,2013-05-18 20:40:00,
2013-05-18 16:45:00,80.2,66.0,30.00,South,180,3.5,3.5,62,0.00,OVC,,0.00,WeatherDisplay:10.37,2013-05-18 20:45:00,
2013-05-18 16:50:00,80.2,66.0,30.00,South,180,1.2,0.0,62,0.00,OVC,,0.00,WeatherDisplay:10.37,2013-05-18 20:50:00,
2013-05-18 16:55:00,78.8,64.7,30.00,West,270,2.3,2.4,62,0.00,OVC,,0.00,WeatherDisplay:10.37,2013-05-18 20:55:00,
2013-05-18 17:00:00,78.3,64.2,30.00,WSW,248,3.5,3.5,62,0.00,OVC,,0.00,WeatherDisplay:10.37,2013-05-18 21:00:00,
2013-05-18 17:05:00,78.1,64.0,30.00,SW,225,2.6,2.6,62,0.00,OVC,,0.00,WeatherDisplay:10.37,2013-05-18 21:05:00,
2013-05-18 17:10:00,79.2,65.0,30.00,NE,45,1.2,0.0,62,0.00,OVC,,0.00,WeatherDisplay:10.37,2013-05-18 21:10:00,
2013-05-18 17:15:00,78.4,64.3,30.00,SW,225,4.6,4.6,62,0.00,OVC,,0.00,WeatherDisplay:10.37,2013-05-18 21:15:00,
2013-05-18 17:20:00,79.9,65.7,30.00,South,180,2.3,2.3,62,0.00,OVC,,0.00,WeatherDisplay:10.37,2013-05-18 21:20:00,
2013-05-18 17:25:00,77.7,63.7,30.00,SW,225,3.8,3.8,62,0.00,OVC,,0.00,WeatherDisplay:10.37,2013-05-18 21:25:00,
2013-05-18 17:30:00,78.6,64.5,30.00,SW,225,2.3,2.3,62,0.00,OVC,,0.00,WeatherDisplay:10.37,2013-05-18 21:30:00,
2013-05-18 17:35:00,79.5,65.4,30.00,WSW,248,2.6,2.6,62,0.00,BKN,,0.00,WeatherDisplay:10.37,2013-05-18 21:35:00,
2013-05-18 17:40:00,78.1,64.0,30.00,SW,225,2.3,2.4,62,0.00,BKN,,0.00,WeatherDisplay:10.37,2013-05-18 21:40:00,
2013-05-18 17:45:00,78.4,64.3,30.00,SW,225,3.5,3.5,62,0.00,BKN,,0.00,WeatherDisplay:10.37,2013-05-18 21:45:00,
2013-05-18 17:50:00,79.3,65.2,30.00,SW,225,1.2,0.0,62,0.00,BKN,,0.00,WeatherDisplay:10.37,2013-05-18 21:50:00,
2013-05-18 17:55:00,79.2,65.0,30.00,SW,225,2.3,2.3,62,0.00,BKN,,0.00,WeatherDisplay:10.37,2013-05-18 21:55:00,
2013-05-18 18:00:00,79.7,65.5,30.00,SW,225,2.3,2.3,62,0.00,BKN,,0.00,WeatherDisplay:10.37,2013-05-18 22:00:00,
2013-05-18 18:05:00,80.4,66.2,29.98,SE,135,2.3,2.3,62,0.00,BKN,,0.00,WeatherDisplay:10.37,2013-05-18 22:05:00,
2013-05-18 18:10:00,79.2,65.0,29.98,West,270,2.3,2.4,62,0.00,BKN,,0.00,WeatherDisplay:10.37,2013-05-18 22:10:00,
2013-05-18 18:15:00,78.8,64.7,29.98,West,270,2.3,2.3,62,0.00,BKN,,0.00,WeatherDisplay:10.37,2013-05-18 22:15:00,
2013-05-18 18:18:00,67.3,37.2,29.98,NE,45,0.0,0.0,33,0.00,CLR,CLR,0.00,WeatherDisplay:10.37,2013-05-18 22:18:00,
2013-05-18 18:20:00,78.4,64.3,29.98,West,270,2.6,2.6,62,0.00,BKN,,0.00,WeatherDisplay:10.37,2013-05-18 22:20:00,
2013-05-18 18:25:00,78.1,64.0,29.98,SW,225,4.6,4.6,62,0.00,BKN,,0.00,WeatherDisplay:10.37,2013-05-18 22:25:00,
2013-05-18 18:30:00,78.6,64.5,29.98,South,180,2.3,2.3,62,0.00,BKN,,0.00,WeatherDisplay:10.37,2013-05-18 22:30:00,
2013-05-18 18:33:00,66.9,37.6,29.98,NE,45,0.0,0.0,34,0.00,CLR,CLR,0.00,WeatherDisplay:10.37,2013-05-18 22:33:00,
2013-05-18 18:35:00,77.2,63.2,29.98,SW,225,3.5,3.5,62,0.00,BKN,,0.00,WeatherDisplay:10.37,2013-05-18 22:35:00,
2013-05-18 18:40:00,77.0,63.0,29.98,WSW,248,2.9,2.9,62,0.00,BKN,,0.00,WeatherDisplay:10.37,2013-05-18 22:40:00,
2013-05-18 18:45:00,77.4,63.3,29.98,West,270,2.4,2.4,62,0.00,BKN,,0.00,WeatherDisplay:10.37,2013-05-18 22:45:00,
2013-05-18 18:48:00,66.6,38.0,30.00,NE,45,0.0,0.0,35,0.00,CLR,CLR,0.00,WeatherDisplay:10.37,2013-05-18 22:48:00,
2013-05-18 18:50:00,76.8,62.8,30.00,SW,225,2.4,2.4,62,0.00,BKN,,0.00,WeatherDisplay:10.37,2013-05-18 22:50:00,
2013-05-18 18:55:00,76.1,62.1,30.00,WSW,248,3.5,3.5,62,0.00,BKN,,0.00,WeatherDisplay:10.37,2013-05-18 22:55:00,
2013-05-18 19:00:00,76.8,62.8,30.00,West,270,1.4,0.0,62,0.00,BKN,,0.00,WeatherDisplay:10.37,2013-05-18 23:00:00,
2013-05-18 19:03:00,66.2,39.1,30.00,NE,45,0.0,0.0,37,0.00,CLR,CLR,0.00,WeatherDisplay:10.37,2013-05-18 23:03:00,
2013-05-18 19:05:00,76.3,62.3,29.98,SW,225,1.6,1.6,62,0.00,BKN,,0.00,WeatherDisplay:10.37,2013-05-18 23:05:00,
2013-05-18 19:10:00,75.7,61.8,29.98,SW,225,3.5,3.5,62,0.00,BKN,,0.00,WeatherDisplay:10.37,2013-05-18 23:10:00,
2013-05-18 19:15:00,75.9,62.0,29.98,SW,225,2.3,2.3,62,0.00,BKN,,0.00,WeatherDisplay:10.37,2013-05-18 23:15:00,
2013-05-18 19:18:00,66.0,39.7,30.00,NE,45,0.0,0.0,38,0.00,CLR,CLR,0.00,WeatherDisplay:10.37,2013-05-18 23:18:00,
2013-05-18 19:20:00,76.1,62.1,30.00,WSW,248,2.3,2.3,62,0.00,BKN,,0.00,WeatherDisplay:10.37,2013-05-18 23:20:00,
2013-05-18 19:25:00,76.5,62.5,30.00,West,270,2.3,2.3,62,0.00,BKN,,0.00,WeatherDisplay:10.37,2013-05-18 23:25:00,
2013-05-18 19:30:00,75.7,61.8,30.00,West,270,2.3,2.3,62,0.00,BKN,,0.00,WeatherDisplay:10.37,2013-05-18 23:30:00,
2013-05-18 19:33:00,65.8,41.5,30.00,NE,45,0.0,0.0,41,0.00,CLR,CLR,0.00,WeatherDisplay:10.37,2013-05-18 23:33:00,
2013-05-18 19:35:00,76.1,62.1,30.00,SW,225,2.3,2.3,62,0.00,BKN,,0.00,WeatherDisplay:10.37,2013-05-18 23:35:00,
2013-05-18 19:40:00,76.5,62.5,30.00,NNE,22,1.6,1.6,62,0.00,BKN,,0.00,WeatherDisplay:10.37,2013-05-18 23:40:00,
2013-05-18 19:45:00,76.5,62.5,30.00,West,270,1.2,0.0,62,0.00,BKN,,0.00,WeatherDisplay:10.37,2013-05-18 23:45:00,
2013-05-18 19:48:00,65.5,41.8,30.00,NE,45,0.0,0.0,42,0.00,CLR,CLR,0.00,WeatherDisplay:10.37,2013-05-18 23:48:00,
2013-05-18 19:50:00,76.3,62.3,30.00,SW,225,0.0,0.0,62,0.00,BKN,,0.00,WeatherDisplay:10.37,2013-05-18 23:50:00,
2013-05-18 19:55:00,76.1,40.6,30.00,SW,225,1.2,0.0,28,0.00,BKN,,0.00,WeatherDisplay:10.37,2013-05-18 23:55:00,
2013-05-18 20:00:00,76.1,40.6,30.00,SW,225,0.0,0.0,28,0.00,BKN,,0.00,WeatherDisplay:10.37,2013-05-19 00:00:00,
2013-05-18 20:03:00,65.1,42.1,30.00,NE,45,0.0,0.0,43,0.00,CLR,CLR,0.00,WeatherDisplay:10.37,2013-05-19 00:03:00,
2013-05-18 20:05:00,75.9,40.5,30.00,SW,225,1.2,1.2,28,0.00,BKN,,0.00,WeatherDisplay:10.37,2013-05-19 00:05:00,
2013-05-18 20:10:00,75.6,40.2,30.00,North,0,1.2,0.0,28,0.00,BKN,,0.00,WeatherDisplay:10.37,2013-05-19 00:10:00,
2013-05-18 20:15:00,75.4,40.0,30.00,NE,45,0.0,0.0,28,0.00,BKN,,0.00,WeatherDisplay:10.37,2013-05-19 00:15:00,
2013-05-18 20:18:00,64.8,42.3,29.98,NE,45,0.0,0.0,44,0.00,CLR,CLR,0.00,WeatherDisplay:10.37,2013-05-19 00:18:00,
2013-05-18 20:20:00,75.0,40.6,30.00,SE,135,0.0,0.0,29,0.00,BKN,,0.00,WeatherDisplay:10.37,2013-05-19 00:20:00,
2013-05-18 20:25:00,75.0,40.6,30.00,SE,135,0.0,0.0,29,0.00,BKN,,0.00,WeatherDisplay:10.37,2013-05-19 00:25:00,
2013-05-18 20:30:00,74.7,40.3,30.00,SSE,158,1.2,0.0,29,0.00,BKN,,0.00,WeatherDisplay:10.37,2013-05-19 00:30:00,
2013-05-18 20:33:00,64.6,42.7,29.98,NE,45,0.0,0.0,45,0.00,CLR,CLR,0.00,WeatherDisplay:10.37,2013-05-19 00:33:00,
2013-05-18 20:35:00,74.3,40.0,30.00,ENE,68,0.0,0.0,29,0.00,BKN,,0.00,WeatherDisplay:10.37,2013-05-19 00:35:00,
2013-05-18 20:40:00,73.9,39.7,30.00,South,180,1.2,0.0,29,0.00,BKN,,0.00,WeatherDisplay:10.37,2013-05-19 00:40:00,
2013-05-18 20:45:00,73.6,39.4,30.00,South,180,0.0,0.0,29,0.00,BKN,,0.00,WeatherDisplay:10.37,2013-05-19 00:45:00,
2013-05-18 20:48:00,64.2,43.0,29.98,NE,45,0.0,0.0,46,0.00,CLR,CLR,0.00,WeatherDisplay:10.37,2013-05-19 00:48:00,
2013-05-18 20:50:00,73.0,38.9,30.00,SE,135,0.0,0.0,29,0.00,BKN,,0.00,WeatherDisplay:10.37,2013-05-19 00:50:00,
2013-05-18 20:55:00,72.7,38.6,30.00,SE,135,0.0,0.0,29,0.00,BKN,,0.00,WeatherDisplay:10.37,2013-05-19 00:55:00,
2013-05-18 21:00:00,72.5,38.4,30.00,SE,135,0.0,0.0,29,0.00,BKN,,0.00,WeatherDisplay:10.37,2013-05-19 01:00:00,
2013-05-18 21:03:00,64.2,44.1,29.98,NE,45,0.0,0.0,48,0.00,CLR,CLR,0.00,WeatherDisplay:10.37,2013-05-19 01:03:00,
2013-05-18 21:05:00,72.1,38.1,30.00,NE,45,1.2,1.2,29,0.00,BKN,,0.00,WeatherDisplay:10.37,2013-05-19 01:05:00,
2013-05-18 21:10:00,72.0,38.0,30.00,NE,45,0.0,0.0,29,0.00,BKN,,0.00,WeatherDisplay:10.37,2013-05-19 01:10:00,
2013-05-18 21:15:00,71.6,37.6,30.00,NE,45,0.0,0.0,29,0.00,BKN,,0.00,WeatherDisplay:10.37,2013-05-19 01:15:00,
2013-05-18 21:18:00,64.2,50.5,30.00,NE,45,0.0,0.0,61,0.00,CLR,CLR,0.00,WeatherDisplay:10.37,2013-05-19 01:18:00,
2013-05-18 21:20:00,71.4,39.2,30.00,NE,45,0.0,0.0,31,0.00,BKN,,0.00,WeatherDisplay:10.37,2013-05-19 01:20:00,
2013-05-18 21:25:00,71.2,41.4,30.00,NE,45,0.0,0.0,34,0.00,BKN,,0.00,WeatherDisplay:10.37,2013-05-19 01:25:00,
2013-05-18 21:30:00,71.1,41.3,30.00,NE,45,0.0,0.0,34,0.00,BKN,,0.00,WeatherDisplay:10.37,2013-05-19 01:30:00,
2013-05-18 21:33:00,64.4,47.4,29.98,NE,45,0.0,0.0,54,0.00,CLR,CLR,0.00,WeatherDisplay:10.37,2013-05-19 01:33:00,
2013-05-18 21:35:00,70.9,41.1,30.00,NE,45,0.0,0.0,34,0.00,BKN,,0.00,WeatherDisplay:10.37,2013-05-19 01:35:00,
2013-05-18 21:40:00,70.7,40.9,30.00,NE,45,0.0,0.0,34,0.00,BKN,,0.00,WeatherDisplay:10.37,2013-05-19 01:40:00,
2013-05-18 21:45:00,70.3,44.2,30.00,NE,45,0.0,0.0,39,0.00,BKN,,0.00,WeatherDisplay:10.37,2013-05-19 01:45:00,
2013-05-18 21:48:00,64.6,47.1,30.00,NE,45,0.0,0.0,53,0.00,CLR,CLR,0.00,WeatherDisplay:10.37,2013-05-19 01:48:00,
2013-05-18 21:50:00,70.3,44.2,30.00,NE,45,0.0,0.0,39,0.00,BKN,,0.00,WeatherDisplay:10.37,2013-05-19 01:50:00,
2013-05-18 21:55:00,70.2,44.0,30.00,NE,45,0.0,0.0,39,0.00,BKN,,0.00,WeatherDisplay:10.37,2013-05-19 01:55:00,
2013-05-18 22:00:00,70.0,43.9,30.00,NE,45,0.0,0.0,39,0.00,BKN,,0.00,WeatherDisplay:10.37,2013-05-19 02:00:00,
2013-05-18 22:03:00,64.4,52.4,29.98,ENE,59,0.0,0.0,65,0.00,CLR,CLR,0.00,WeatherDisplay:10.37,2013-05-19 02:03:00,
2013-05-18 22:05:00,69.6,43.6,30.00,NE,45,0.0,0.0,39,0.00,BKN,,0.00,WeatherDisplay:10.37,2013-05-19 02:05:00,
2013-05-18 22:10:00,69.4,44.7,30.00,NE,45,0.0,0.0,41,0.00,BKN,,0.00,WeatherDisplay:10.37,2013-05-19 02:10:00,
2013-05-18 22:16:00,69.3,44.5,30.00,NE,45,0.0,0.0,41,0.00,BKN,,0.00,WeatherDisplay:10.37,2013-05-19 02:16:00,
2013-05-18 22:18:00,64.4,50.7,30.00,South,180,0.0,1.0,61,0.00,CLR,CLR,0.00,WeatherDisplay:10.37,2013-05-19 02:18:00,
2013-05-18 22:21:00,69.3,44.5,30.00,NE,45,0.0,0.0,41,0.00,BKN,,0.00,WeatherDisplay:10.37,2013-05-19 02:21:00,
2013-05-18 22:26:00,68.9,44.2,30.00,NE,45,0.0,0.0,41,0.00,BKN,,0.00,WeatherDisplay:10.37,2013-05-19 02:26:00,
2013-05-18 22:31:00,68.9,44.9,30.00,NE,45,0.0,0.0,42,0.00,BKN,,0.00,WeatherDisplay:10.37,2013-05-19 02:31:00,
2013-05-18 22:33:00,64.6,51.3,29.98,South,180,0.0,2.0,62,0.00,CLR,CLR,0.00,WeatherDisplay:10.37,2013-05-19 02:33:00,
2013-05-18 22:36:00,68.7,44.7,29.98,NE,45,0.0,0.0,42,0.00,-RA,,0.00,WeatherDisplay:10.37,2013-05-19 02:36:00,
2013-05-18 22:41:00,68.5,45.8,29.98,NE,45,0.0,0.0,44,0.00,-RA,,0.00,WeatherDisplay:10.37,2013-05-19 02:41:00,
2013-05-18 22:46:00,68.5,46.3,29.98,NE,45,0.0,0.0,45,0.00,-RA,,0.00,WeatherDisplay:10.37,2013-05-19 02:46:00,
2013-05-18 22:48:00,64.4,52.0,30.00,South,180,0.0,2.0,64,0.00,CLR,CLR,0.00,WeatherDisplay:10.37,2013-05-19 02:48:00,
2013-05-18 22:51:00,68.4,47.3,30.00,NE,45,0.0,0.0,47,0.00,-RA,,0.00,WeatherDisplay:10.37,2013-05-19 02:51:00,
2013-05-18 22:56:00,68.2,47.7,30.00,NE,45,0.0,0.0,48,0.00,-RA,,0.00,WeatherDisplay:10.37,2013-05-19 02:56:00,
2013-05-18 23:01:00,68.0,47.6,30.00,NE,45,0.0,0.0,48,0.00,-RA,,0.00,WeatherDisplay:10.37,2013-05-19 03:01:00,
2013-05-18 23:03:00,64.0,50.8,30.00,South,180,0.0,0.0,62,0.00,CLR,CLR,0.00,WeatherDisplay:10.37,2013-05-19 03:03:00,
2013-05-18 23:06:00,67.6,48.9,29.98,NE,45,0.0,0.0,51,0.00,-RA,,0.00,WeatherDisplay:10.37,2013-05-19 03:06:00,
2013-05-18 23:11:00,67.5,49.2,29.98,NE,45,0.0,0.0,52,0.00,-RA,,0.00,WeatherDisplay:10.37,2013-05-19 03:11:00,
2013-05-18 23:18:00,64.0,52.0,30.00,South,180,0.0,0.0,65,0.00,CLR,CLR,0.00,WeatherDisplay:10.37,2013-05-19 03:18:00,
2013-05-18 23:33:00,64.0,52.0,30.00,South,180,0.0,0.0,65,0.00,CLR,CLR,0.00,WeatherDisplay:10.37,2013-05-19 03:33:00,
2013-05-18 23:48:00,63.9,51.4,30.00,South,180,0.0,0.0,64,0.00,CLR,CLR,0.00,WeatherDisplay:10.37,2013-05-19 03:48:00,